sensor_id;sensor_type;location;lat;lon;timestamp;temperature;humidity
30534;DHT22;17318;52.390;9.754;2023-01-29T00:00:00;5.00;95.90
30534;DHT22;17318;52.390;9.754;2023-01-29T00:02:26;5.00;96.00
30534;DHT22;17318;52.390;9.754;2023-01-29T00:04:51;5.00;95.90
30534;DHT22;17318;52.390;9.754;2023-01-29T00:07:18;5.00;96.00
30534;DHT22;17318;52.390;9.754;2023-01-29T00:09:43;5.00;96.00
30534;DHT22;17318;52.390;9.754;2023-01-29T00:12:09;5.00;96.00
30534;DHT22;17318;52.390;9.754;2023-01-29T00:14:35;5.00;95.90
30534;DHT22;17318;52.390;9.754;2023-01-29T00:17:01;5.00;96.00
30534;DHT22;17318;52.390;9.754;2023-01-29T00:19:26;5.10;96.00
30534;DHT22;17318;52.390;9.754;2023-01-29T00:21:55;5.10;96.10
30534;DHT22;17318;52.390;9.754;2023-01-29T00:24:23;5.10;96.00
30534;DHT22;17318;52.390;9.754;2023-01-29T00:26:49;5.10;96.20
30534;DHT22;17318;52.390;9.754;2023-01-29T00:29:15;5.10;96.30
30534;DHT22;17318;52.390;9.754;2023-01-29T00:31:45;5.00;96.20
30534;DHT22;17318;52.390;9.754;2023-01-29T00:34:10;5.00;96.20
30534;DHT22;17318;52.390;9.754;2023-01-29T00:36:36;5.10;96.20
30534;DHT22;17318;52.390;9.754;2023-01-29T00:39:02;5.10;96.40
30534;DHT22;17318;52.390;9.754;2023-01-29T00:41:35;5.00;96.40
30534;DHT22;17318;52.390;9.754;2023-01-29T00:44:19;4.90;96.40
30534;DHT22;17318;52.390;9.754;2023-01-29T00:47:04;4.90;96.50
30534;DHT22;17318;52.390;9.754;2023-01-29T00:49:50;4.80;96.50
30534;DHT22;17318;52.390;9.754;2023-01-29T00:52:16;4.80;96.60
30534;DHT22;17318;52.390;9.754;2023-01-29T00:54:55;4.80;96.70
30534;DHT22;17318;52.390;9.754;2023-01-29T00:57:23;4.80;96.60
30534;DHT22;17318;52.390;9.754;2023-01-29T00:59:49;4.80;96.60
30534;DHT22;17318;52.390;9.754;2023-01-29T01:02:16;4.80;96.70
30534;DHT22;17318;52.390;9.754;2023-01-29T01:05:01;4.70;96.60
30534;DHT22;17318;52.390;9.754;2023-01-29T01:07:28;4.80;96.80
30534;DHT22;17318;52.390;9.754;2023-01-29T01:09:54;4.80;96.70
30534;DHT22;17318;52.390;9.754;2023-01-29T01:12:38;4.80;96.80
30534;DHT22;17318;52.390;9.754;2023-01-29T01:15:08;4.80;96.70
30534;DHT22;17318;52.390;9.754;2023-01-29T01:17:34;4.80;96.60
30534;DHT22;17318;52.390;9.754;2023-01-29T01:20:00;4.90;96.70
30534;DHT22;17318;52.390;9.754;2023-01-29T01:22:28;4.80;96.70
30534;DHT22;17318;52.390;9.754;2023-01-29T01:24:55;4.80;96.70
30534;DHT22;17318;52.390;9.754;2023-01-29T01:27:21;4.90;96.70
30534;DHT22;17318;52.390;9.754;2023-01-29T01:29:49;4.90;96.70
30534;DHT22;17318;52.390;9.754;2023-01-29T01:32:15;4.90;96.90
30534;DHT22;17318;52.390;9.754;2023-01-29T01:34:41;4.90;96.50
30534;DHT22;17318;52.390;9.754;2023-01-29T01:37:06;5.00;96.60
30534;DHT22;17318;52.390;9.754;2023-01-29T01:39:32;5.00;96.50
30534;DHT22;17318;52.390;9.754;2023-01-29T01:41:58;5.00;96.40
30534;DHT22;17318;52.390;9.754;2023-01-29T01:50:02;4.90;96.50
30534;DHT22;17318;52.390;9.754;2023-01-29T01:52:31;4.90;96.50
30534;DHT22;17318;52.390;9.754;2023-01-29T01:54:58;4.90;96.50
30534;DHT22;17318;52.390;9.754;2023-01-29T01:57:29;4.90;96.50
30534;DHT22;17318;52.390;9.754;2023-01-29T02:00:01;4.90;96.60
30534;DHT22;17318;52.390;9.754;2023-01-29T02:02:28;4.80;96.50
30534;DHT22;17318;52.390;9.754;2023-01-29T02:05:13;4.80;96.70
30534;DHT22;17318;52.390;9.754;2023-01-29T02:07:58;4.80;96.90
30534;DHT22;17318;52.390;9.754;2023-01-29T02:10:47;4.60;97.10
30534;DHT22;17318;52.390;9.754;2023-01-29T02:13:14;4.70;97.20
30534;DHT22;17318;52.390;9.754;2023-01-29T02:15:42;4.60;97.30
30534;DHT22;17318;52.390;9.754;2023-01-29T02:18:12;4.60;97.30
30534;DHT22;17318;52.390;9.754;2023-01-29T02:20:41;4.60;97.20
30534;DHT22;17318;52.390;9.754;2023-01-29T02:29:15;4.60;97.30
30534;DHT22;17318;52.390;9.754;2023-01-29T02:34:52;4.70;97.10
30534;DHT22;17318;52.390;9.754;2023-01-29T02:37:49;4.80;97.00
30534;DHT22;17318;52.390;9.754;2023-01-29T02:40:35;4.70;97.00
30534;DHT22;17318;52.390;9.754;2023-01-29T02:48:40;4.80;96.90
30534;DHT22;17318;52.390;9.754;2023-01-29T02:51:17;4.80;96.80
30534;DHT22;17318;52.390;9.754;2023-01-29T02:53:53;4.80;96.80
30534;DHT22;17318;52.390;9.754;2023-01-29T02:56:28;4.90;96.80
30534;DHT22;17318;52.390;9.754;2023-01-29T02:59:07;4.80;96.60
30534;DHT22;17318;52.390;9.754;2023-01-29T03:01:43;4.70;96.60
30534;DHT22;17318;52.390;9.754;2023-01-29T03:04:15;4.60;96.60
30534;DHT22;17318;52.390;9.754;2023-01-29T03:06:54;4.60;96.70
30534;DHT22;17318;52.390;9.754;2023-01-29T03:09:38;4.70;96.70
30534;DHT22;17318;52.390;9.754;2023-01-29T03:12:17;4.70;96.60
30534;DHT22;17318;52.390;9.754;2023-01-29T03:14:53;4.70;96.60
30534;DHT22;17318;52.390;9.754;2023-01-29T03:17:47;4.70;96.70
30534;DHT22;17318;52.390;9.754;2023-01-29T03:20:22;4.60;96.50
30534;DHT22;17318;52.390;9.754;2023-01-29T03:23:00;4.60;96.40
30534;DHT22;17318;52.390;9.754;2023-01-29T03:25:27;4.60;96.30
30534;DHT22;17318;52.390;9.754;2023-01-29T03:28:14;4.70;96.30
30534;DHT22;17318;52.390;9.754;2023-01-29T03:31:03;4.70;96.30
30534;DHT22;17318;52.390;9.754;2023-01-29T03:33:59;4.80;96.20
30534;DHT22;17318;52.390;9.754;2023-01-29T03:36:49;4.60;96.20
30534;DHT22;17318;52.390;9.754;2023-01-29T03:39:21;4.60;96.10
30534;DHT22;17318;52.390;9.754;2023-01-29T03:42:01;4.50;95.90
30534;DHT22;17318;52.390;9.754;2023-01-29T03:44:47;4.70;96.00
30534;DHT22;17318;52.390;9.754;2023-01-29T03:47:54;4.50;95.80
30534;DHT22;17318;52.390;9.754;2023-01-29T03:50:47;4.50;96.00
30534;DHT22;17318;52.390;9.754;2023-01-29T03:56:31;4.40;95.90
30534;DHT22;17318;52.390;9.754;2023-01-29T04:01:53;4.60;96.00
30534;DHT22;17318;52.390;9.754;2023-01-29T04:04:25;4.60;95.80
30534;DHT22;17318;52.390;9.754;2023-01-29T04:06:55;4.60;96.10
30534;DHT22;17318;52.390;9.754;2023-01-29T04:09:30;4.60;95.70
30534;DHT22;17318;52.390;9.754;2023-01-29T04:12:03;4.70;95.80
30534;DHT22;17318;52.390;9.754;2023-01-29T04:14:30;4.60;95.70
30534;DHT22;17318;52.390;9.754;2023-01-29T04:16:59;4.30;95.80
30534;DHT22;17318;52.390;9.754;2023-01-29T04:19:27;4.50;96.00
30534;DHT22;17318;52.390;9.754;2023-01-29T04:22:01;4.40;95.90
30534;DHT22;17318;52.390;9.754;2023-01-29T04:24:29;4.60;96.00
30534;DHT22;17318;52.390;9.754;2023-01-29T04:26:57;4.50;95.70
30534;DHT22;17318;52.390;9.754;2023-01-29T04:32:21;4.50;95.70
30534;DHT22;17318;52.390;9.754;2023-01-29T04:37:55;4.40;95.60
30534;DHT22;17318;52.390;9.754;2023-01-29T04:43:16;4.50;95.80
30534;DHT22;17318;52.390;9.754;2023-01-29T04:46:14;4.60;95.60
30534;DHT22;17318;52.390;9.754;2023-01-29T04:51:42;4.70;95.50
30534;DHT22;17318;52.390;9.754;2023-01-29T04:57:08;4.80;95.40
30534;DHT22;17318;52.390;9.754;2023-01-29T04:59:44;4.70;95.60
30534;DHT22;17318;52.390;9.754;2023-01-29T05:02:12;4.50;95.50
30534;DHT22;17318;52.390;9.754;2023-01-29T05:04:40;4.60;95.50
30534;DHT22;17318;52.390;9.754;2023-01-29T05:07:11;4.60;95.50
30534;DHT22;17318;52.390;9.754;2023-01-29T05:09:38;4.60;95.50
30534;DHT22;17318;52.390;9.754;2023-01-29T05:12:09;4.50;95.60
30534;DHT22;17318;52.390;9.754;2023-01-29T05:14:37;4.60;95.70
30534;DHT22;17318;52.390;9.754;2023-01-29T05:17:09;4.60;95.60
30534;DHT22;17318;52.390;9.754;2023-01-29T05:19:36;4.60;95.50
30534;DHT22;17318;52.390;9.754;2023-01-29T05:22:03;4.70;95.50
30534;DHT22;17318;52.390;9.754;2023-01-29T05:24:29;4.80;95.40
30534;DHT22;17318;52.390;9.754;2023-01-29T05:26:55;4.70;95.40
30534;DHT22;17318;52.390;9.754;2023-01-29T05:29:44;4.80;95.40
30534;DHT22;17318;52.390;9.754;2023-01-29T05:32:10;4.80;95.60
30534;DHT22;17318;52.390;9.754;2023-01-29T05:34:35;4.70;95.50
30534;DHT22;17318;52.390;9.754;2023-01-29T05:37:01;4.70;95.40
30534;DHT22;17318;52.390;9.754;2023-01-29T05:39:27;4.70;95.50
30534;DHT22;17318;52.390;9.754;2023-01-29T05:41:53;4.70;95.40
30534;DHT22;17318;52.390;9.754;2023-01-29T05:44:19;4.80;95.40
30534;DHT22;17318;52.390;9.754;2023-01-29T05:46:45;4.70;95.40
30534;DHT22;17318;52.390;9.754;2023-01-29T05:49:11;4.80;95.50
30534;DHT22;17318;52.390;9.754;2023-01-29T05:51:37;4.70;95.40
30534;DHT22;17318;52.390;9.754;2023-01-29T05:54:03;4.80;95.40
30534;DHT22;17318;52.390;9.754;2023-01-29T05:56:29;4.90;95.30
30534;DHT22;17318;52.390;9.754;2023-01-29T05:58:55;4.90;95.40
30534;DHT22;17318;52.390;9.754;2023-01-29T06:01:24;4.90;95.30
30534;DHT22;17318;52.390;9.754;2023-01-29T06:03:50;4.90;95.30
30534;DHT22;17318;52.390;9.754;2023-01-29T06:06:16;4.90;95.30
30534;DHT22;17318;52.390;9.754;2023-01-29T06:08:42;4.90;95.20
30534;DHT22;17318;52.390;9.754;2023-01-29T06:11:10;4.90;95.10
30534;DHT22;17318;52.390;9.754;2023-01-29T06:13:36;4.90;95.20
30534;DHT22;17318;52.390;9.754;2023-01-29T06:16:06;4.60;95.30
30534;DHT22;17318;52.390;9.754;2023-01-29T06:18:32;4.70;95.40
30534;DHT22;17318;52.390;9.754;2023-01-29T06:21:05;4.70;95.30
30534;DHT22;17318;52.390;9.754;2023-01-29T06:23:31;4.70;95.20
30534;DHT22;17318;52.390;9.754;2023-01-29T06:26:05;4.90;95.30
30534;DHT22;17318;52.390;9.754;2023-01-29T06:28:31;4.80;95.20
30534;DHT22;17318;52.390;9.754;2023-01-29T06:30:58;4.90;95.70
30534;DHT22;17318;52.390;9.754;2023-01-29T06:33:25;4.90;95.40
30534;DHT22;17318;52.390;9.754;2023-01-29T06:35:56;4.70;95.40
30534;DHT22;17318;52.390;9.754;2023-01-29T06:38:22;4.60;95.70
30534;DHT22;17318;52.390;9.754;2023-01-29T06:40:48;4.60;95.80
30534;DHT22;17318;52.390;9.754;2023-01-29T06:43:14;4.80;95.90
30534;DHT22;17318;52.390;9.754;2023-01-29T06:48:14;4.70;95.90
30534;DHT22;17318;52.390;9.754;2023-01-29T06:50:39;4.80;95.80
30534;DHT22;17318;52.390;9.754;2023-01-29T06:53:06;4.80;95.70
30534;DHT22;17318;52.390;9.754;2023-01-29T06:55:32;4.90;95.70
30534;DHT22;17318;52.390;9.754;2023-01-29T06:57:57;5.00;95.80
30534;DHT22;17318;52.390;9.754;2023-01-29T07:00:23;4.90;95.70
30534;DHT22;17318;52.390;9.754;2023-01-29T07:02:49;5.00;95.80
30534;DHT22;17318;52.390;9.754;2023-01-29T07:05:14;5.00;95.70
30534;DHT22;17318;52.390;9.754;2023-01-29T07:07:40;5.00;95.70
30534;DHT22;17318;52.390;9.754;2023-01-29T07:10:06;4.70;95.70
30534;DHT22;17318;52.390;9.754;2023-01-29T07:12:32;4.80;95.80
30534;DHT22;17318;52.390;9.754;2023-01-29T07:14:57;4.80;95.70
30534;DHT22;17318;52.390;9.754;2023-01-29T07:17:23;4.70;95.70
30534;DHT22;17318;52.390;9.754;2023-01-29T07:19:49;4.80;95.90
30534;DHT22;17318;52.390;9.754;2023-01-29T07:22:14;4.90;95.80
30534;DHT22;17318;52.390;9.754;2023-01-29T07:24:40;4.80;95.80
30534;DHT22;17318;52.390;9.754;2023-01-29T07:27:06;4.90;95.80
30534;DHT22;17318;52.390;9.754;2023-01-29T07:29:32;4.80;95.80
30534;DHT22;17318;52.390;9.754;2023-01-29T07:31:57;4.90;95.90
30534;DHT22;17318;52.390;9.754;2023-01-29T07:34:23;4.80;96.00
30534;DHT22;17318;52.390;9.754;2023-01-29T07:36:52;4.80;96.20
30534;DHT22;17318;52.390;9.754;2023-01-29T07:39:18;4.80;96.50
30534;DHT22;17318;52.390;9.754;2023-01-29T07:41:43;4.80;96.70
30534;DHT22;17318;52.390;9.754;2023-01-29T07:44:09;4.60;96.90
30534;DHT22;17318;52.390;9.754;2023-01-29T07:46:35;4.60;97.10
30534;DHT22;17318;52.390;9.754;2023-01-29T07:49:01;4.40;97.40
30534;DHT22;17318;52.390;9.754;2023-01-29T07:51:26;4.40;97.60
30534;DHT22;17318;52.390;9.754;2023-01-29T07:53:52;4.50;97.60
30534;DHT22;17318;52.390;9.754;2023-01-29T07:56:18;4.70;97.50
30534;DHT22;17318;52.390;9.754;2023-01-29T07:58:43;4.70;97.60
30534;DHT22;17318;52.390;9.754;2023-01-29T08:01:09;4.70;97.70
30534;DHT22;17318;52.390;9.754;2023-01-29T08:03:35;4.80;97.70
30534;DHT22;17318;52.390;9.754;2023-01-29T08:06:02;4.70;97.90
30534;DHT22;17318;52.390;9.754;2023-01-29T08:08:28;4.50;98.20
30534;DHT22;17318;52.390;9.754;2023-01-29T08:10:54;4.60;98.50
30534;DHT22;17318;52.390;9.754;2023-01-29T08:13:19;4.70;98.30
30534;DHT22;17318;52.390;9.754;2023-01-29T08:15:45;4.80;98.30
30534;DHT22;17318;52.390;9.754;2023-01-29T08:18:12;4.80;98.30
30534;DHT22;17318;52.390;9.754;2023-01-29T08:20:38;4.80;98.20
30534;DHT22;17318;52.390;9.754;2023-01-29T08:23:06;4.90;98.30
30534;DHT22;17318;52.390;9.754;2023-01-29T08:25:32;4.80;98.30
30534;DHT22;17318;52.390;9.754;2023-01-29T08:27:59;4.70;98.30
30534;DHT22;17318;52.390;9.754;2023-01-29T08:30:30;4.70;98.50
30534;DHT22;17318;52.390;9.754;2023-01-29T08:32:56;4.50;98.70
30534;DHT22;17318;52.390;9.754;2023-01-29T08:35:22;4.80;98.80
30534;DHT22;17318;52.390;9.754;2023-01-29T08:37:55;4.70;98.60
30534;DHT22;17318;52.390;9.754;2023-01-29T08:40:21;4.70;98.60
30534;DHT22;17318;52.390;9.754;2023-01-29T08:42:47;4.70;98.60
30534;DHT22;17318;52.390;9.754;2023-01-29T08:45:12;4.70;98.50
30534;DHT22;17318;52.390;9.754;2023-01-29T08:47:44;4.70;98.50
30534;DHT22;17318;52.390;9.754;2023-01-29T08:50:10;4.80;98.60
30534;DHT22;17318;52.390;9.754;2023-01-29T08:52:36;4.70;98.60
30534;DHT22;17318;52.390;9.754;2023-01-29T08:55:01;4.70;98.50
30534;DHT22;17318;52.390;9.754;2023-01-29T08:57:27;4.80;98.60
30534;DHT22;17318;52.390;9.754;2023-01-29T08:59:53;4.90;98.50
30534;DHT22;17318;52.390;9.754;2023-01-29T09:02:19;5.10;98.40
30534;DHT22;17318;52.390;9.754;2023-01-29T09:04:44;5.00;98.40
30534;DHT22;17318;52.390;9.754;2023-01-29T09:07:10;5.00;98.30
30534;DHT22;17318;52.390;9.754;2023-01-29T09:09:36;5.00;98.30
30534;DHT22;17318;52.390;9.754;2023-01-29T09:12:02;5.10;98.20
30534;DHT22;17318;52.390;9.754;2023-01-29T09:14:28;4.90;98.10
30534;DHT22;17318;52.390;9.754;2023-01-29T09:16:54;5.00;98.20
30534;DHT22;17318;52.390;9.754;2023-01-29T09:19:19;5.00;98.10
30534;DHT22;17318;52.390;9.754;2023-01-29T09:21:47;5.00;98.10
30534;DHT22;17318;52.390;9.754;2023-01-29T09:24:14;4.90;98.20
30534;DHT22;17318;52.390;9.754;2023-01-29T09:26:40;4.90;98.10
30534;DHT22;17318;52.390;9.754;2023-01-29T09:29:07;4.90;98.20
30534;DHT22;17318;52.390;9.754;2023-01-29T09:31:33;5.00;98.20
30534;DHT22;17318;52.390;9.754;2023-01-29T09:34:01;4.90;98.10
30534;DHT22;17318;52.390;9.754;2023-01-29T09:36:27;4.90;98.20
30534;DHT22;17318;52.390;9.754;2023-01-29T09:38:53;4.90;98.30
30534;DHT22;17318;52.390;9.754;2023-01-29T09:44:12;5.10;98.00
30534;DHT22;17318;52.390;9.754;2023-01-29T09:46:43;5.20;97.90
30534;DHT22;17318;52.390;9.754;2023-01-29T09:49:34;5.20;97.80
30534;DHT22;17318;52.390;9.754;2023-01-29T09:54:54;5.10;97.80
30534;DHT22;17318;52.390;9.754;2023-01-29T09:57:29;5.30;98.00
30534;DHT22;17318;52.390;9.754;2023-01-29T09:59:58;5.20;97.70
30534;DHT22;17318;52.390;9.754;2023-01-29T10:02:39;5.20;97.80
30534;DHT22;17318;52.390;9.754;2023-01-29T10:13:51;5.40;97.50
30534;DHT22;17318;52.390;9.754;2023-01-29T10:19:56;5.30;97.80
30534;DHT22;17318;52.390;9.754;2023-01-29T10:25:11;5.50;97.40
30534;DHT22;17318;52.390;9.754;2023-01-29T10:27:40;5.50;97.70
30534;DHT22;17318;52.390;9.754;2023-01-29T10:30:07;5.50;97.50
30534;DHT22;17318;52.390;9.754;2023-01-29T10:32:36;5.50;97.50
30534;DHT22;17318;52.390;9.754;2023-01-29T10:35:21;5.60;97.40
30534;DHT22;17318;52.390;9.754;2023-01-29T10:37:52;5.60;97.30
30534;DHT22;17318;52.390;9.754;2023-01-29T10:40:40;5.50;97.50
30534;DHT22;17318;52.390;9.754;2023-01-29T10:51:50;5.60;97.50
30534;DHT22;17318;52.390;9.754;2023-01-29T10:57:28;5.70;97.20
30534;DHT22;17318;52.390;9.754;2023-01-29T11:00:10;5.70;97.20
30534;DHT22;17318;52.390;9.754;2023-01-29T11:02:47;5.70;97.30
30534;DHT22;17318;52.390;9.754;2023-01-29T11:05:29;5.70;97.10
30534;DHT22;17318;52.390;9.754;2023-01-29T11:11:15;5.60;96.90
30534;DHT22;17318;52.390;9.754;2023-01-29T11:13:59;5.50;97.10
30534;DHT22;17318;52.390;9.754;2023-01-29T11:16:28;5.40;97.10
30534;DHT22;17318;52.390;9.754;2023-01-29T11:18:58;5.40;97.20
30534;DHT22;17318;52.390;9.754;2023-01-29T11:21:26;5.60;97.10
30534;DHT22;17318;52.390;9.754;2023-01-29T11:24:13;5.50;97.00
30534;DHT22;17318;52.390;9.754;2023-01-29T11:26:43;5.60;96.90
30534;DHT22;17318;52.390;9.754;2023-01-29T11:29:38;5.60;96.90
30534;DHT22;17318;52.390;9.754;2023-01-29T11:32:07;5.50;96.80
30534;DHT22;17318;52.390;9.754;2023-01-29T11:35:05;5.60;96.90
30534;DHT22;17318;52.390;9.754;2023-01-29T11:37:44;5.50;96.80
30534;DHT22;17318;52.390;9.754;2023-01-29T11:42:45;5.60;96.70
30534;DHT22;17318;52.390;9.754;2023-01-29T11:45:27;5.70;96.60
30534;DHT22;17318;52.390;9.754;2023-01-29T11:47:55;5.60;96.50
30534;DHT22;17318;52.390;9.754;2023-01-29T11:50:31;5.60;96.50
30534;DHT22;17318;52.390;9.754;2023-01-29T11:52:58;5.70;96.40
30534;DHT22;17318;52.390;9.754;2023-01-29T11:55:27;5.60;96.20
30534;DHT22;17318;52.390;9.754;2023-01-29T12:00:52;5.70;96.30
30534;DHT22;17318;52.390;9.754;2023-01-29T12:03:43;5.60;96.30
30534;DHT22;17318;52.390;9.754;2023-01-29T12:06:46;5.60;96.40
30534;DHT22;17318;52.390;9.754;2023-01-29T12:09:10;5.60;96.30
30534;DHT22;17318;52.390;9.754;2023-01-29T12:11:39;5.80;96.40
30534;DHT22;17318;52.390;9.754;2023-01-29T12:14:29;5.70;96.30
30534;DHT22;17318;52.390;9.754;2023-01-29T12:17:05;5.70;96.20
30534;DHT22;17318;52.390;9.754;2023-01-29T12:19:46;5.80;96.30
30534;DHT22;17318;52.390;9.754;2023-01-29T12:22:41;5.80;96.40
30534;DHT22;17318;52.390;9.754;2023-01-29T12:27:52;5.70;95.90
30534;DHT22;17318;52.390;9.754;2023-01-29T12:30:32;5.70;95.90
30534;DHT22;17318;52.390;9.754;2023-01-29T12:36:12;5.80;95.90
30534;DHT22;17318;52.390;9.754;2023-01-29T12:38:40;5.70;96.00
30534;DHT22;17318;52.390;9.754;2023-01-29T12:41:24;5.80;96.10
30534;DHT22;17318;52.390;9.754;2023-01-29T12:43:56;5.80;95.90
30534;DHT22;17318;52.390;9.754;2023-01-29T12:46:25;5.80;96.00
30534;DHT22;17318;52.390;9.754;2023-01-29T12:48:54;5.80;96.00
30534;DHT22;17318;52.390;9.754;2023-01-29T12:51:24;5.80;96.20
30534;DHT22;17318;52.390;9.754;2023-01-29T12:54:05;5.80;96.00
30534;DHT22;17318;52.390;9.754;2023-01-29T12:56:35;5.60;96.20
30534;DHT22;17318;52.390;9.754;2023-01-29T13:01:55;5.80;96.10
30534;DHT22;17318;52.390;9.754;2023-01-29T13:04:40;5.80;96.10
30534;DHT22;17318;52.390;9.754;2023-01-29T13:07:16;5.80;96.20
30534;DHT22;17318;52.390;9.754;2023-01-29T13:09:50;5.80;96.10
30534;DHT22;17318;52.390;9.754;2023-01-29T13:12:17;5.80;96.20
30534;DHT22;17318;52.390;9.754;2023-01-29T13:14:50;5.70;96.20
30534;DHT22;17318;52.390;9.754;2023-01-29T13:17:38;5.60;96.20
30534;DHT22;17318;52.390;9.754;2023-01-29T13:20:26;5.50;96.30
30534;DHT22;17318;52.390;9.754;2023-01-29T13:22:56;5.60;96.30
30534;DHT22;17318;52.390;9.754;2023-01-29T13:25:22;5.70;96.40
30534;DHT22;17318;52.390;9.754;2023-01-29T13:27:48;5.70;96.20
30534;DHT22;17318;52.390;9.754;2023-01-29T13:30:28;5.70;96.30
30534;DHT22;17318;52.390;9.754;2023-01-29T13:32:57;5.70;96.30
30534;DHT22;17318;52.390;9.754;2023-01-29T13:35:38;5.50;96.20
30534;DHT22;17318;52.390;9.754;2023-01-29T13:38:14;5.80;96.30
30534;DHT22;17318;52.390;9.754;2023-01-29T13:40:49;5.80;96.50
30534;DHT22;17318;52.390;9.754;2023-01-29T13:43:20;6.00;96.40
30534;DHT22;17318;52.390;9.754;2023-01-29T13:45:48;6.10;96.30
30534;DHT22;17318;52.390;9.754;2023-01-29T13:48:26;6.00;96.30
30534;DHT22;17318;52.390;9.754;2023-01-29T13:50:54;5.80;96.30
30534;DHT22;17318;52.390;9.754;2023-01-29T13:53:32;5.90;96.40
30534;DHT22;17318;52.390;9.754;2023-01-29T13:59:01;5.70;96.50
30534;DHT22;17318;52.390;9.754;2023-01-29T14:04:22;5.60;96.80
30534;DHT22;17318;52.390;9.754;2023-01-29T14:07:04;5.80;96.90
30534;DHT22;17318;52.390;9.754;2023-01-29T14:17:21;5.60;97.40
30534;DHT22;17318;52.390;9.754;2023-01-29T14:19:50;5.60;97.30
30534;DHT22;17318;52.390;9.754;2023-01-29T14:22:22;5.60;97.60
30534;DHT22;17318;52.390;9.754;2023-01-29T14:24:52;5.50;97.80
30534;DHT22;17318;52.390;9.754;2023-01-29T14:27:22;5.70;97.70
30534;DHT22;17318;52.390;9.754;2023-01-29T14:29:51;5.60;97.70
30534;DHT22;17318;52.390;9.754;2023-01-29T14:32:23;5.60;98.00
30534;DHT22;17318;52.390;9.754;2023-01-29T14:34:57;5.60;98.20
30534;DHT22;17318;52.390;9.754;2023-01-29T14:37:45;5.60;98.00
30534;DHT22;17318;52.390;9.754;2023-01-29T14:40:18;5.70;98.10
30534;DHT22;17318;52.390;9.754;2023-01-29T14:43:05;5.60;98.20
30534;DHT22;17318;52.390;9.754;2023-01-29T14:45:35;5.60;98.40
30534;DHT22;17318;52.390;9.754;2023-01-29T14:50:38;5.30;98.90
30534;DHT22;17318;52.390;9.754;2023-01-29T15:01:04;5.40;98.90
30534;DHT22;17318;52.390;9.754;2023-01-29T15:03:51;5.40;98.90
30534;DHT22;17318;52.390;9.754;2023-01-29T15:06:26;5.40;99.00
30534;DHT22;17318;52.390;9.754;2023-01-29T15:09:03;5.40;99.20
30534;DHT22;17318;52.390;9.754;2023-01-29T15:11:36;5.40;99.40
30534;DHT22;17318;52.390;9.754;2023-01-29T15:14:21;5.50;99.30
30534;DHT22;17318;52.390;9.754;2023-01-29T15:19:27;5.40;99.30
30534;DHT22;17318;52.390;9.754;2023-01-29T15:22:09;5.40;99.50
30534;DHT22;17318;52.390;9.754;2023-01-29T15:24:37;5.20;99.90
30534;DHT22;17318;52.390;9.754;2023-01-29T15:27:04;5.20;99.60
30534;DHT22;17318;52.390;9.754;2023-01-29T15:29:31;5.20;99.80
30534;DHT22;17318;52.390;9.754;2023-01-29T15:31:57;5.20;99.90
30534;DHT22;17318;52.390;9.754;2023-01-29T15:34:23;5.30;99.90
30534;DHT22;17318;52.390;9.754;2023-01-29T15:36:49;5.30;99.90
30534;DHT22;17318;52.390;9.754;2023-01-29T15:39:21;5.30;99.90
30534;DHT22;17318;52.390;9.754;2023-01-29T15:41:49;5.20;99.90
30534;DHT22;17318;52.390;9.754;2023-01-29T15:44:21;5.20;99.90
30534;DHT22;17318;52.390;9.754;2023-01-29T15:46:57;5.30;99.90
30534;DHT22;17318;52.390;9.754;2023-01-29T15:49:34;5.40;99.80
30534;DHT22;17318;52.390;9.754;2023-01-29T15:52:04;5.30;99.70
30534;DHT22;17318;52.390;9.754;2023-01-29T15:54:32;5.20;99.90
30534;DHT22;17318;52.390;9.754;2023-01-29T15:56:59;5.20;99.70
30534;DHT22;17318;52.390;9.754;2023-01-29T15:59:37;5.30;99.70
30534;DHT22;17318;52.390;9.754;2023-01-29T16:02:28;5.30;99.60
30534;DHT22;17318;52.390;9.754;2023-01-29T16:04:56;5.30;99.60
30534;DHT22;17318;52.390;9.754;2023-01-29T16:07:22;5.10;99.70
30534;DHT22;17318;52.390;9.754;2023-01-29T16:09:49;5.10;99.80
30534;DHT22;17318;52.390;9.754;2023-01-29T16:12:15;5.00;99.80
30534;DHT22;17318;52.390;9.754;2023-01-29T16:14:42;5.10;99.80
30534;DHT22;17318;52.390;9.754;2023-01-29T16:17:21;5.10;99.90
30534;DHT22;17318;52.390;9.754;2023-01-29T16:19:58;5.10;99.90
30534;DHT22;17318;52.390;9.754;2023-01-29T16:22:28;5.10;99.90
30534;DHT22;17318;52.390;9.754;2023-01-29T16:24:55;5.10;99.90
30534;DHT22;17318;52.390;9.754;2023-01-29T16:27:20;5.10;99.90
30534;DHT22;17318;52.390;9.754;2023-01-29T16:29:48;5.20;99.90
30534;DHT22;17318;52.390;9.754;2023-01-29T16:32:15;5.10;99.80
30534;DHT22;17318;52.390;9.754;2023-01-29T16:34:43;5.10;99.90
30534;DHT22;17318;52.390;9.754;2023-01-29T16:37:20;5.00;99.90
30534;DHT22;17318;52.390;9.754;2023-01-29T16:39:48;5.10;99.90
30534;DHT22;17318;52.390;9.754;2023-01-29T16:47:45;5.10;99.90
30534;DHT22;17318;52.390;9.754;2023-01-29T16:50:34;5.00;99.80
30534;DHT22;17318;52.390;9.754;2023-01-29T16:55:39;5.00;99.80
30534;DHT22;17318;52.390;9.754;2023-01-29T16:58:20;5.10;99.70
30534;DHT22;17318;52.390;9.754;2023-01-29T17:00:50;5.00;99.90
30534;DHT22;17318;52.390;9.754;2023-01-29T17:03:18;5.00;99.80
30534;DHT22;17318;52.390;9.754;2023-01-29T17:05:44;5.10;99.70
30534;DHT22;17318;52.390;9.754;2023-01-29T17:08:23;5.00;99.70
30534;DHT22;17318;52.390;9.754;2023-01-29T17:10:50;5.10;99.80
30534;DHT22;17318;52.390;9.754;2023-01-29T17:13:28;5.20;99.70
30534;DHT22;17318;52.390;9.754;2023-01-29T17:16:12;5.10;99.60
30534;DHT22;17318;52.390;9.754;2023-01-29T17:18:38;5.00;99.60
30534;DHT22;17318;52.390;9.754;2023-01-29T17:21:04;5.00;99.70
30534;DHT22;17318;52.390;9.754;2023-01-29T17:23:30;4.90;99.80
30534;DHT22;17318;52.390;9.754;2023-01-29T17:25:56;4.90;99.90
30534;DHT22;17318;52.390;9.754;2023-01-29T17:28:21;4.90;99.90
30534;DHT22;17318;52.390;9.754;2023-01-29T17:30:47;5.00;99.60
30534;DHT22;17318;52.390;9.754;2023-01-29T17:33:18;5.00;99.60
30534;DHT22;17318;52.390;9.754;2023-01-29T17:35:48;5.00;99.40
30534;DHT22;17318;52.390;9.754;2023-01-29T17:38:15;5.00;99.50
30534;DHT22;17318;52.390;9.754;2023-01-29T17:40:44;5.00;99.60
30534;DHT22;17318;52.390;9.754;2023-01-29T17:43:11;5.00;99.40
30534;DHT22;17318;52.390;9.754;2023-01-29T17:45:38;4.90;99.40
30534;DHT22;17318;52.390;9.754;2023-01-29T17:48:09;5.00;99.50
30534;DHT22;17318;52.390;9.754;2023-01-29T17:50:38;5.00;99.50
30534;DHT22;17318;52.390;9.754;2023-01-29T17:53:04;5.10;99.30
30534;DHT22;17318;52.390;9.754;2023-01-29T17:55:30;5.00;99.20
30534;DHT22;17318;52.390;9.754;2023-01-29T17:57:55;5.00;99.40
30534;DHT22;17318;52.390;9.754;2023-01-29T18:00:22;5.00;99.30
30534;DHT22;17318;52.390;9.754;2023-01-29T18:02:48;5.10;99.30
30534;DHT22;17318;52.390;9.754;2023-01-29T18:05:15;5.10;99.10
30534;DHT22;17318;52.390;9.754;2023-01-29T18:07:42;5.10;99.00
30534;DHT22;17318;52.390;9.754;2023-01-29T18:10:19;5.20;99.00
30534;DHT22;17318;52.390;9.754;2023-01-29T18:12:45;5.10;98.90
30534;DHT22;17318;52.390;9.754;2023-01-29T18:15:11;5.20;99.50
30534;DHT22;17318;52.390;9.754;2023-01-29T18:17:37;5.30;99.20